Time;durP1;ratioP1;P1;durP2;ratioP2;P2;SDS_P1;SDS_P2;PMS_P1;PMS_P2;Temp;Humidity;BMP_temperature;BMP_pressure;BME280_temperature;BME280_humidity;BME280_pressure;Samples;Min_cycle;Max_cycle;Signal;HPM_P1;HPM_P2
2022/09/16 00:04:19;;;;;;;3.10;0.88;;;;;;;12.13;100.00;100513.69;20908928;28;20075;-67
2022/09/16 00:14:40;;;;;;;4.85;0.90;;;;;;;12.27;100.00;100526.53;20920239;28;20053;-67
2022/09/16 00:25:02;;;;;;;3.00;0.80;;;;;;;12.33;100.00;100513.03;20933110;28;20117;-67
2022/09/16 00:35:24;;;;;;;1.48;0.77;;;;;;;12.23;100.00;100509.41;20918044;28;20114;-67
2022/09/16 00:45:54;;;;;;;3.63;0.67;;;;;;;12.22;100.00;100513.00;20932763;28;20045;-67
2022/09/16 00:56:20;;;;;;;3.53;0.52;;;;;;;12.27;100.00;100496.03;20911473;28;20288;-66
2022/09/16 01:06:42;;;;;;;3.72;0.70;;;;;;;12.31;100.00;100509.69;20931607;28;20053;-66
2022/09/16 01:17:09;;;;;;;4.78;0.80;;;;;;;12.22;100.00;100510.41;20934042;28;20048;-67
2022/09/16 01:27:44;;;;;;;3.78;0.80;;;;;;;12.25;100.00;100508.38;20933117;28;20068;-67
2022/09/16 01:38:24;;;;;;;4.60;0.75;;;;;;;12.09;100.00;100493.97;20931399;28;20037;-67
2022/09/16 01:49:01;;;;;;;4.80;0.80;;;;;;;12.15;100.00;100506.56;20936069;28;20048;-67
2022/09/16 01:59:32;;;;;;;4.30;0.70;;;;;;;12.13;100.00;100491.03;20937057;28;20086;-67
2022/09/16 02:10:03;;;;;;;4.97;0.70;;;;;;;11.96;100.00;100514.13;20939454;28;20126;-65
2022/09/16 02:20:29;;;;;;;2.03;0.60;;;;;;;11.92;100.00;100515.31;20944798;28;20041;-65
2022/09/16 02:30:55;;;;;;;4.18;0.80;;;;;;;11.93;100.00;100496.09;20946220;28;20122;-66
2022/09/16 02:41:17;;;;;;;3.90;0.80;;;;;;;11.93;100.00;100490.88;20926964;28;20443;-66
2022/09/16 02:51:59;;;;;;;4.37;0.90;;;;;;;11.92;100.00;100504.88;20956296;28;20045;-66
2022/09/16 03:02:21;;;;;;;6.47;1.17;;;;;;;11.88;100.00;100508.66;20936255;28;20283;-66
2022/09/16 03:12:45;;;;;;;;;;;;;;;11.82;100.00;100498.66;20922946;28;20045;-66
2022/09/16 03:23:25;;;;;;;2.95;0.90;;;;;;;11.80;100.00;100497.94;20923704;28;19924;-65
2022/09/16 03:33:51;;;;;;;3.30;0.80;;;;;;;11.59;100.00;100481.28;20930962;28;20048;-66
2022/09/16 03:44:13;;;;;;;3.60;0.80;;;;;;;11.66;100.00;100488.53;20921556;28;20044;-66
2022/09/16 03:54:36;;;;;;;4.30;0.90;;;;;;;11.69;100.00;100487.47;20947337;28;20086;-66
2022/09/16 04:04:57;;;;;;;4.00;0.80;;;;;;;11.57;100.00;100488.38;20929077;28;20113;-66
2022/09/16 04:15:19;;;;;;;6.63;0.90;;;;;;;11.63;100.00;100480.09;20922294;28;20104;-65
2022/09/16 04:25:40;;;;;;;3.73;0.90;;;;;;;11.48;100.00;100470.75;20956806;28;20095;-66
2022/09/16 04:36:11;;;;;;;3.00;0.82;;;;;;;11.33;100.00;100481.47;20922340;28;20103;-68
2022/09/16 04:46:32;;;;;;;2.38;0.70;;;;;;;11.24;100.00;100469.94;20925396;28;20084;-67
2022/09/16 04:56:54;;;;;;;2.35;0.77;;;;;;;11.26;100.00;100478.50;20931046;28;20040;-66
2022/09/16 05:07:15;;;;;;;4.67;1.07;;;;;;;11.18;100.00;100465.19;20919914;28;20099;-65
2022/09/16 05:17:37;;;;;;;5.60;1.13;;;;;;;11.22;100.00;100456.16;20928794;28;20045;-66
2022/09/16 05:28:11;;;;;;;5.00;0.90;;;;;;;11.29;100.00;100441.75;20922006;28;20041;-66
2022/09/16 05:38:33;;;;;;;3.03;0.83;;;;;;;11.23;100.00;100447.38;20909516;28;20098;-67
2022/09/16 05:48:55;;;;;;;4.17;0.70;;;;;;;11.11;100.00;100463.94;20919331;28;20057;-66
2022/09/16 05:59:17;;;;;;;3.03;0.60;;;;;;;11.22;100.00;100471.81;20920085;28;20053;-66
2022/09/16 06:09:38;;;;;;;2.77;0.80;;;;;;;11.43;100.00;100470.25;20940633;28;20045;-66
2022/09/16 06:19:59;;;;;;;5.73;0.80;;;;;;;11.55;100.00;100469.38;20933194;28;20044;-67
2022/09/16 06:30:21;;;;;;;6.43;0.93;;;;;;;11.72;100.00;100453.28;20934837;28;20075;-67
2022/09/16 06:40:43;;;;;;;5.73;0.90;;;;;;;11.66;100.00;100459.81;20924812;28;20051;-67
2022/09/16 06:51:09;;;;;;;5.50;1.07;;;;;;;11.90;100.00;100459.75;20930303;28;20099;-67
2022/09/16 07:01:31;;;;;;;8.10;1.30;;;;;;;12.32;100.00;100453.84;20925847;28;20083;-67
2022/09/16 07:11:53;;;;;;;6.45;1.02;;;;;;;12.21;100.00;100448.63;20920888;28;20496;-67
2022/09/16 07:22:15;;;;;;;6.45;1.10;;;;;;;12.27;100.00;100448.13;20973451;28;20489;-67
2022/09/16 07:32:37;;;;;;;5.93;1.00;;;;;;;12.42;100.00;100442.56;20924609;28;20041;-68
2022/09/16 07:42:58;;;;;;;;;;;;;;;12.69;100.00;100446.44;20922766;28;20044;-68
2022/09/16 07:53:20;;;;;;;7.57;1.00;;;;;;;12.93;98.74;100444.53;20922761;28;19955;-66
2022/09/16 08:03:45;;;;;;;8.10;1.08;;;;;;;13.31;96.82;100444.88;20911283;28;20052;-66
2022/09/16 08:14:06;;;;;;;6.72;1.40;;;;;;;13.53;94.34;100450.84;20945099;28;20502;-66
2022/09/16 08:24:28;;;;;;;7.53;1.02;;;;;;;13.68;91.72;100454.81;20911663;28;20053;-65
2022/09/16 08:34:49;;;;;;;10.27;1.10;;;;;;;14.01;88.78;100451.13;20934671;28;20086;-64
2022/09/16 08:45:30;;;;;;;;;;;;;;;14.29;86.07;100453.09;20918085;28;20725;-65
2022/09/16 08:55:52;;;;;;;9.90;1.40;;;;;;;14.47;81.86;100463.69;20910427;28;20467;-65
2022/09/16 09:06:30;;;;;;;6.82;1.00;;;;;;;14.71;80.62;100453.69;20908411;28;20055;-64
2022/09/16 09:17:05;;;;;;;8.07;1.17;;;;;;;14.52;82.21;100453.63;20916752;28;20048;-64
2022/09/16 09:27:39;;;;;;;9.57;1.15;;;;;;;14.89;78.87;100452.06;20930476;28;20047;-66
2022/09/16 09:38:16;;;;;;;9.82;1.48;;;;;;;15.18;77.92;100437.19;20920439;28;20049;-66
2022/09/16 09:48:43;;;;;;;9.98;1.48;;;;;;;15.22;74.86;100438.56;20911132;28;20052;-67
2022/09/16 09:59:26;;;;;;;11.95;1.58;;;;;;;15.66;72.20;100428.34;20954588;28;20041;-67
2022/09/16 10:10:01;;;;;;;11.00;1.10;;;;;;;14.49;84.17;100437.31;20934442;28;20056;-66
2022/09/16 10:20:28;;;;;;;7.93;1.30;;;;;;;13.63;88.80;100446.50;20961142;28;20128;-66
2022/09/16 10:30:56;;;;;;;11.70;1.33;;;;;;;13.88;91.24;100434.78;20945117;28;20052;-65
2022/09/16 10:41:24;;;;;;;7.10;1.13;;;;;;;14.42;84.61;100427.47;20934655;28;20045;-66
2022/09/16 10:51:46;;;;;;;5.50;0.80;;;;;;;15.17;74.26;100409.25;20929190;28;20041;-65
2022/09/16 11:02:27;;;;;;;7.55;1.05;;;;;;;15.43;72.64;100420.91;20938634;28;20041;-66
2022/09/16 11:12:57;;;;;;;7.57;1.13;;;;;;;13.29;92.04;100435.50;20922927;28;20492;-66
2022/09/16 11:23:54;;;;;;;10.40;1.40;;;;;;;13.15;99.37;100407.81;20928360;28;20489;-65
2022/09/16 11:34:47;;;;;;;7.88;1.15;;;;;;;14.13;96.61;100395.06;20922754;28;20614;-66
2022/09/16 11:45:41;;;;;;;7.00;1.00;;;;;;;14.73;86.35;100409.78;20908020;28;20053;-65
2022/09/16 11:56:10;;;;;;;11.80;1.30;;;;;;;14.11;94.92;100405.69;20909337;28;20047;-65
2022/09/16 12:07:20;;;;;;;7.80;1.20;;;;;;;14.21;99.66;100376.91;20918839;28;20362;-64
2022/09/16 12:18:16;;;;;;;5.97;0.98;;;;;;;15.04;82.96;100376.41;20918707;28;20076;-64
2022/09/16 12:28:51;;;;;;;11.80;1.27;;;;;;;15.37;76.65;100373.34;20934080;28;20500;-65
2022/09/16 12:39:13;;;;;;;8.48;1.67;;;;;;;15.56;78.23;100355.78;20929587;28;20079;-65
2022/09/16 12:50:04;;;;;;;;;;;;;;;16.03;77.33;100341.63;20914990;28;20057;-65
2022/09/16 13:00:40;;;;;;;9.00;1.83;;;;;;;14.89;82.22;100383.00;20923568;28;19928;-66
2022/09/16 13:11:14;;;;;;;15.63;2.40;;;;;;;14.77;87.17;100355.25;20925903;28;20416;-65
2022/09/16 13:22:25;;;;;;;15.10;2.28;;;;;;;15.21;78.88;100347.63;20929991;28;20386;-65
2022/09/16 13:32:49;;;;;;;14.80;2.17;;;;;;;15.11;76.01;100383.56;20925851;28;20142;-66
2022/09/16 13:43:14;;;;;;;16.10;1.80;;;;;;;15.05;74.79;100349.97;20953245;28;20139;-67
2022/09/16 13:53:42;;;;;;;7.95;1.23;;;;;;;15.03;73.70;100357.16;20940023;28;20045;-66
2022/09/16 14:04:18;;;;;;;14.93;1.17;;;;;;;14.76;77.51;100367.53;20930961;28;20048;-68
2022/09/16 14:14:40;;;;;;;12.23;1.40;;;;;;;14.56;82.91;100371.06;20926917;28;20036;-67
2022/09/16 14:25:31;;;;;;;9.63;1.38;;;;;;;14.12;90.52;100386.41;20967847;28;20048;-68
2022/09/16 14:35:55;;;;;;;6.18;0.88;;;;;;;13.76;90.69;100354.63;20964915;28;20642;-68
2022/09/16 14:46:16;;;;;;;4.88;0.75;;;;;;;13.26;99.05;100359.81;20928689;28;20040;-67
2022/09/16 14:56:38;;;;;;;3.92;1.00;;;;;;;13.17;100.00;100357.97;20938706;28;20048;-66
2022/09/16 15:07:13;;;;;;;6.40;1.23;;;;;;;12.98;100.00;100348.16;20962526;28;20440;-67
2022/09/16 15:17:35;;;;;;;7.93;1.45;;;;;;;12.89;100.00;100343.69;20923361;28;20420;-66
2022/09/16 15:28:04;;;;;;;5.88;0.85;;;;;;;12.85;100.00;100347.47;20928578;28;20057;-66
2022/09/16 15:38:27;;;;;;;5.97;1.15;;;;;;;12.80;100.00;100344.44;20918665;28;20053;-67
2022/09/16 15:48:54;;;;;;;10.10;1.63;;;;;;;12.69;100.00;100356.69;20921788;28;20140;-65
2022/09/16 16:00:09;;;;;;;11.70;1.65;;;;;;;12.73;100.00;100358.94;20942364;28;20041;-65
2022/09/16 16:10:35;;;;;;;10.57;1.83;;;;;;;12.62;100.00;100361.59;20964258;28;20048;-65
2022/09/16 16:20:57;;;;;;;9.73;1.52;;;;;;;12.64;100.00;100362.31;20922056;28;20045;-66
2022/09/16 16:31:18;;;;;;;8.75;1.30;;;;;;;12.56;100.00;100351.63;20949303;28;20066;-66
2022/09/16 16:41:40;;;;;;;3.22;0.90;;;;;;;12.53;100.00;100338.78;20927015;28;20510;-66
2022/09/16 16:52:04;;;;;;;3.60;0.93;;;;;;;12.50;100.00;100331.22;20918701;28;20555;-66
2022/09/16 17:02:25;;;;;;;2.20;0.60;;;;;;;12.31;100.00;100331.97;20914752;28;20048;-66
2022/09/16 17:12:47;;;;;;;3.67;0.55;;;;;;;12.27;100.00;100354.06;20919313;28;20128;-66
2022/09/16 17:23:08;;;;;;;4.30;0.65;;;;;;;12.30;100.00;100356.44;20924684;28;20085;-66
2022/09/16 17:33:30;;;;;;;2.60;0.75;;;;;;;12.26;100.00;100352.38;20919604;28;20037;-66
2022/09/16 17:43:53;;;;;;;5.38;1.00;;;;;;;12.20;100.00;100355.50;20906822;28;20053;-64
2022/09/16 17:54:15;;;;;;;4.80;1.30;;;;;;;12.17;100.00;100356.56;20910306;28;20056;-65
2022/09/16 18:04:36;;;;;;;10.55;1.30;;;;;;;12.22;100.00;100356.22;20923468;28;20492;-65
2022/09/16 18:14:58;;;;;;;8.17;1.20;;;;;;;12.19;100.00;100357.25;20913979;28;20042;-66
2022/09/16 18:25:19;;;;;;;5.88;1.10;;;;;;;12.19;100.00;100362.50;20923593;28;20291;-67
2022/09/16 18:35:41;;;;;;;5.40;0.90;;;;;;;12.14;100.00;100359.44;20928617;28;20041;-67
2022/09/16 18:46:26;;;;;;;10.38;1.40;;;;;;;12.21;100.00;100365.00;20937704;28;20114;-66
2022/09/16 18:56:47;;;;;;;5.05;1.10;;;;;;;12.30;100.00;100380.75;20920077;28;20131;-66
2022/09/16 19:07:12;;;;;;;5.97;1.23;;;;;;;12.34;100.00;100386.59;20907127;28;20829;-67
2022/09/16 19:17:34;;;;;;;3.83;1.02;;;;;;;12.32;100.00;100399.78;20915726;28;20070;-64
2022/09/16 19:27:55;;;;;;;3.53;1.08;;;;;;;12.41;100.00;100419.13;20913215;28;20139;-66
2022/09/16 19:38:17;;;;;;;4.50;1.07;;;;;;;12.34;100.00;100423.19;20901814;28;20174;-66
2022/09/16 19:48:41;;;;;;;5.43;1.10;;;;;;;12.41;100.00;100429.59;20897174;28;20057;-67
2022/09/16 19:59:03;;;;;;;5.70;1.48;;;;;;;12.41;100.00;100421.75;20918064;28;20084;-68
2022/09/16 20:09:24;;;;;;;11.93;1.80;;;;;;;12.48;100.00;100425.56;20918259;28;20839;-67
2022/09/16 20:19:46;;;;;;;8.43;1.47;;;;;;;12.48;100.00;100437.69;20933355;28;20449;-66
2022/09/16 20:30:07;;;;;;;;;;;;;;;12.50;100.00;100450.63;20912320;28;20481;-66
2022/09/16 20:40:30;;;;;;;8.63;1.57;;;;;;;12.49;100.00;100460.28;20913669;28;19921;-67
2022/09/16 20:50:51;;;;;;;10.80;1.92;;;;;;;12.58;100.00;100472.59;20913767;28;20075;-67
2022/09/16 21:01:16;;;;;;;15.70;2.60;;;;;;;12.49;100.00;100475.97;20915546;28;20041;-67
2022/09/16 21:11:43;;;;;;;20.85;2.30;;;;;;;12.54;100.00;100501.75;20913280;28;20348;-68
2022/09/16 21:22:04;;;;;;;13.45;2.05;;;;;;;12.50;100.00;100514.22;20928908;28;20048;-67
2022/09/16 21:32:26;;;;;;;18.83;2.57;;;;;;;12.50;100.00;100513.38;20920809;28;20048;-66
2022/09/16 21:42:47;;;;;;;15.60;2.30;;;;;;;12.45;100.00;100522.53;20926827;28;20348;-67
2022/09/16 21:53:09;;;;;;;14.77;1.80;;;;;;;12.42;100.00;100541.06;20937288;28;20044;-67
2022/09/16 22:03:31;;;;;;;12.32;2.10;;;;;;;12.33;100.00;100549.63;20931432;28;20275;-66
2022/09/16 22:13:54;;;;;;;11.07;2.03;;;;;;;12.34;100.00;100554.72;20961459;28;20120;-67
2022/09/16 22:24:19;;;;;;;7.97;1.50;;;;;;;12.24;100.00;100558.97;20945080;28;20049;-67
2022/09/16 22:34:40;;;;;;;18.38;2.28;;;;;;;12.21;100.00;100550.53;20928854;28;20040;-67
2022/09/16 22:45:02;;;;;;;17.27;2.60;;;;;;;12.12;100.00;100554.69;20940148;28;20044;-68
2022/09/16 22:55:23;;;;;;;15.77;3.17;;;;;;;12.13;100.00;100563.34;20916308;28;20091;-67
2022/09/16 23:05:53;;;;;;;25.67;3.03;;;;;;;12.19;100.00;100571.53;20932510;28;20049;-68
2022/09/16 23:16:19;;;;;;;20.08;3.22;;;;;;;12.07;100.00;100579.50;20946950;28;20090;-67
2022/09/16 23:26:41;;;;;;;11.88;2.42;;;;;;;12.09;100.00;100585.41;20934168;28;20074;-68
2022/09/16 23:37:03;;;;;;;21.05;2.50;;;;;;;11.95;100.00;100562.94;20940257;28;20107;-67
2022/09/16 23:47:24;;;;;;;12.32;1.73;;;;;;;11.96;100.00;100574.22;20930749;28;20049;-67
2022/09/16 23:57:46;;;;;;;16.63;2.10;;;;;;;11.93;100.00;100577.06;20953092;28;20532;-68
